TAP9K LEMG-LPFR
Flight info
| Callsign | TAP9K |
|---|---|
| Flight time | N/A |
| Altitude | 29000 |
| Route | SVL N747 NAPES Y136 NIRAK |
| Aircraft | A20N/M-SDE2E3FGHIRWXY/LB1 |
Departure
| Time | 2026-04-30 14:45 |
|---|---|
| Airport | Málaga-Costa del Sol Airport (LEMG) |
Arrival
| Time | N/A |
|---|---|
| Airport | Faro - Gago Coutinho International Airport (LPFR) |
| Time | Latitude | Longitude | Altitude | Speed | Heading |
|---|---|---|---|---|---|
| 2026-04-30 14:23 | 36.67456 | -4.49208 | 42 ft | 0 kts | 331° |
| 2026-04-30 14:33 | 36.67445 | -4.49201 | 41 ft | 4 kts | 331° |
| 2026-04-30 14:33 | 36.67423 | -4.49183 | 41 ft | 4 kts | 310° |
| 2026-04-30 14:34 | 36.67417 | -4.49162 | 40 ft | 3 kts | 234° |
| 2026-04-30 14:34 | 36.67431 | -4.49144 | 41 ft | 0 kts | 221° |
| 2026-04-30 14:40 | 36.67418 | -4.49158 | 41 ft | 7 kts | 221° |
| 2026-04-30 14:40 | 36.67354 | -4.49230 | 40 ft | 15 kts | 231° |
| 2026-04-30 14:40 | 36.67326 | -4.49349 | 40 ft | 12 kts | 252° |
| 2026-04-30 14:40 | 36.67349 | -4.49411 | 41 ft | 9 kts | 306° |
| 2026-04-30 14:41 | 36.67401 | -4.49489 | 42 ft | 15 kts | 310° |
| 2026-04-30 14:41 | 36.67486 | -4.49608 | 40 ft | 22 kts | 311° |
| 2026-04-30 14:41 | 36.67597 | -4.49766 | 42 ft | 27 kts | 312° |
| 2026-04-30 14:41 | 36.67726 | -4.49948 | 43 ft | 29 kts | 312° |
| 2026-04-30 14:42 | 36.67866 | -4.50139 | 44 ft | 30 kts | 311° |
| 2026-04-30 14:42 | 36.68007 | -4.50339 | 42 ft | 32 kts | 313° |
| 2026-04-30 14:42 | 36.68158 | -4.50550 | 44 ft | 33 kts | 311° |
| 2026-04-30 14:42 | 36.68311 | -4.50767 | 45 ft | 33 kts | 312° |
| 2026-04-30 14:43 | 36.68454 | -4.50967 | 50 ft | 18 kts | 312° |
| 2026-04-30 14:43 | 36.68502 | -4.51058 | 54 ft | 11 kts | 274° |
| 2026-04-30 14:43 | 36.68485 | -4.51149 | 54 ft | 10 kts | 252° |
| 2026-04-30 14:43 | 36.68443 | -4.51209 | 59 ft | 9 kts | 189° |
| 2026-04-30 14:44 | 36.68389 | -4.51167 | 61 ft | 10 kts | 129° |
| 2026-04-30 14:44 | 36.68383 | -4.51159 | 57 ft | 0 kts | 131° |
| 2026-04-30 14:44 | 36.68373 | -4.51144 | 55 ft | 5 kts | 131° |
| 2026-04-30 14:44 | 36.68304 | -4.51048 | 56 ft | 39 kts | 134° |
| 2026-04-30 14:45 | 36.67962 | -4.50570 | 52 ft | 106 kts | 131° |
| 2026-04-30 14:45 | 36.67357 | -4.49725 | 51 ft | 154 kts | 133° |
| 2026-04-30 14:45 | 36.66627 | -4.48702 | 490 ft | 160 kts | 131° |
| 2026-04-30 14:45 | 36.65879 | -4.47605 | 1029 ft | 171 kts | 131° |
| 2026-04-30 14:46 | 36.65106 | -4.46432 | 1600 ft | 178 kts | 131° |
| 2026-04-30 14:46 | 36.64302 | -4.45226 | 2166 ft | 183 kts | 133° |
| 2026-04-30 14:46 | 36.63358 | -4.44129 | 2765 ft | 189 kts | 146° |
| 2026-04-30 14:46 | 36.62147 | -4.43439 | 3360 ft | 198 kts | 170° |
| 2026-04-30 14:47 | 36.60734 | -4.43435 | 3964 ft | 215 kts | 192° |
| 2026-04-30 14:47 | 36.59212 | -4.43927 | 4573 ft | 234 kts | 196° |
| 2026-04-30 14:47 | 36.57634 | -4.44501 | 5542 ft | 237 kts | 197° |
| 2026-04-30 14:47 | 36.56045 | -4.45089 | 6576 ft | 239 kts | 197° |
| 2026-04-30 14:48 | 36.54459 | -4.45741 | 7549 ft | 242 kts | 207° |
| 2026-04-30 14:48 | 36.53183 | -4.47104 | 8435 ft | 248 kts | 236° |
| 2026-04-30 14:48 | 36.52405 | -4.49070 | 9201 ft | 260 kts | 245° |
| 2026-04-30 14:48 | 36.51684 | -4.51182 | 9976 ft | 267 kts | 246° |
| 2026-04-30 14:49 | 36.51042 | -4.53347 | 10958 ft | 268 kts | 255° |
| 2026-04-30 14:49 | 36.50860 | -4.55617 | 11917 ft | 272 kts | 270° |
| 2026-04-30 14:49 | 36.51112 | -4.57963 | 12734 ft | 281 kts | 275° |
| 2026-04-30 14:49 | 36.51414 | -4.60460 | 13126 ft | 303 kts | 275° |
| 2026-04-30 14:50 | 36.52050 | -4.66048 | 13722 ft | 348 kts | 275° |
| 2026-04-30 14:50 | 36.52482 | -4.69067 | 14435 ft | 356 kts | 279° |
| 2026-04-30 14:51 | 36.53484 | -4.75154 | 16059 ft | 363 kts | 279° |
| 2026-04-30 14:51 | 36.53982 | -4.78249 | 16773 ft | 367 kts | 278° |
| 2026-04-30 14:51 | 36.54980 | -4.84524 | 18262 ft | 373 kts | 278° |
| 2026-04-30 14:52 | 36.55484 | -4.87704 | 18962 ft | 377 kts | 278° |
| 2026-04-30 14:52 | 36.56660 | -4.94086 | 20283 ft | 386 kts | 284° |
| 2026-04-30 14:52 | 36.57422 | -4.97304 | 20992 ft | 388 kts | 283° |
| 2026-04-30 14:53 | 36.58935 | -5.03822 | 22210 ft | 395 kts | 283° |
| 2026-04-30 14:53 | 36.59702 | -5.07130 | 22782 ft | 398 kts | 283° |
| 2026-04-30 14:54 | 36.61252 | -5.13802 | 23939 ft | 405 kts | 283° |
| 2026-04-30 14:54 | 36.62827 | -5.20577 | 25078 ft | 409 kts | 283° |
| 2026-04-30 14:55 | 36.64417 | -5.27434 | 26113 ft | 415 kts | 282° |
| 2026-04-30 14:55 | 36.65218 | -5.30895 | 26625 ft | 417 kts | 282° |
| 2026-04-30 14:55 | 36.67006 | -5.37764 | 27522 ft | 427 kts | 292° |
| 2026-04-30 14:56 | 36.70800 | -5.43586 | 28320 ft | 447 kts | 318° |
| 2026-04-30 14:56 | 36.76367 | -5.47335 | 29001 ft | 461 kts | 332° |
| 2026-04-30 14:57 | 36.79304 | -5.48972 | 29072 ft | 462 kts | 332° |
| 2026-04-30 14:58 | 36.90979 | -5.55607 | 29075 ft | 460 kts | 331° |
| 2026-04-30 14:58 | 36.99682 | -5.60653 | 29071 ft | 461 kts | 330° |
| 2026-04-30 15:00 | 37.14219 | -5.69112 | 29070 ft | 461 kts | 331° |
| 2026-04-30 15:01 | 37.26587 | -5.73482 | 29068 ft | 470 kts | 349° |
| 2026-04-30 15:01 | 37.35424 | -5.77906 | 29061 ft | 453 kts | 315° |
| 2026-04-30 15:02 | 37.37589 | -5.80728 | 29046 ft | 446 kts | 303° |
| 2026-04-30 15:02 | 37.39186 | -5.84019 | 29048 ft | 439 kts | 290° |
| 2026-04-30 15:03 | 37.40254 | -5.93790 | 29046 ft | 422 kts | 256° |
| 2026-04-30 15:03 | 37.38664 | -6.00855 | 29055 ft | 418 kts | 251° |
| 2026-04-30 15:04 | 37.37210 | -6.07634 | 29062 ft | 384 kts | 253° |
| 2026-04-30 15:04 | 37.35523 | -6.16793 | 29032 ft | 335 kts | 254° |
| 2026-04-30 15:05 | 37.34057 | -6.24915 | 28455 ft | 309 kts | 253° |
| 2026-04-30 15:06 | 37.33101 | -6.30162 | 27965 ft | 308 kts | 253° |
| 2026-04-30 15:06 | 37.32150 | -6.35397 | 27182 ft | 306 kts | 253° |
| 2026-04-30 15:07 | 37.31211 | -6.40573 | 26389 ft | 301 kts | 253° |
| 2026-04-30 15:07 | 37.30279 | -6.45675 | 25579 ft | 298 kts | 253° |
| 2026-04-30 15:08 | 37.29361 | -6.50678 | 24817 ft | 294 kts | 253° |
| 2026-04-30 15:08 | 37.27999 | -6.58074 | 23161 ft | 286 kts | 253° |
| 2026-04-30 15:09 | 37.27107 | -6.62891 | 22105 ft | 281 kts | 254° |
| 2026-04-30 15:09 | 37.26232 | -6.67618 | 21059 ft | 275 kts | 253° |
| 2026-04-30 15:10 | 37.25369 | -6.72257 | 20040 ft | 270 kts | 254° |
| 2026-04-30 15:11 | 37.23674 | -6.81327 | 18427 ft | 266 kts | 254° |
| 2026-04-30 15:11 | 37.22831 | -6.85842 | 17667 ft | 266 kts | 254° |
| 2026-04-30 15:12 | 37.21584 | -6.92553 | 16716 ft | 258 kts | 254° |
| 2026-04-30 15:13 | 37.20768 | -6.96919 | 16045 ft | 256 kts | 254° |
| 2026-04-30 15:14 | 37.19920 | -7.05621 | 14338 ft | 258 kts | 276° |
| 2026-04-30 15:14 | 37.20779 | -7.12200 | 13425 ft | 250 kts | 276° |
| 2026-04-30 15:16 | 37.22112 | -7.22853 | 11571 ft | 243 kts | 276° |
| 2026-04-30 15:17 | 37.23141 | -7.31211 | 10220 ft | 242 kts | 277° |
| 2026-04-30 15:18 | 37.24247 | -7.41589 | 9477 ft | 239 kts | 258° |
| 2026-04-30 15:19 | 37.21022 | -7.46083 | 8614 ft | 238 kts | 215° |